SQL weather

San Carlos Airport
San Carlos, California, United States

Public forecast

Using degrees Fahrenheit for public forecast. Weather courtesy of forecast.io.

Current aviation weather report (METAR) for San Carlos Airport

Retrieved 2019/10/20 22:47 UTC (15 minutes ago):

KSQL 202247Z 29012KT 10SM SKC 22/02 A3010

Closest aviation forecast (TAF) to San Carlos Airport

Closest forecast is San Francisco International Airport, 8.8 nm (16.2 km) NW. Retrieved 2019/10/20 18:27 UTC (5 hours ago):

TAF KSFO 201723Z 2018/2124 19005KT P6SM FEW200 FM202100 29016G23KT P6SM SKC FM210500 29010KT P6SM SKC FM210800 03005KT P6SM SKC FM211600 28007KT P6SM SKC FM212200 31011KT P6SM SKC